Time;durP1;ratioP1;P1;durP2;ratioP2;P2;SDS_P1;SDS_P2;PMS_P1;PMS_P2;Temp;Humidity;BMP_temperature;BMP_pressure;BME280_temperature;BME280_humidity;BME280_pressure;Samples;Min_cycle;Max_cycle;Signal;HPM_P1;HPM_P2
2024/01/02 00:03:39;;;;;;;16.50;10.90;;;;;;;3.07;100.00;98589.22;437013;1262;141137;-62
2024/01/02 00:13:45;;;;;;;16.00;10.70;;;;;;;2.96;100.00;98584.23;432064;1261;140178;-62
2024/01/02 00:23:50;;;;;;;16.90;9.20;;;;;;;2.80;100.00;98590.70;431994;1263;139142;-63
2024/01/02 00:33:56;;;;;;;12.20;9.60;;;;;;;2.72;100.00;98588.16;432266;1264;138999;-62
2024/01/02 00:44:02;;;;;;;14.10;8.50;;;;;;;2.74;100.00;98583.55;432201;1261;139515;-61
2024/01/02 00:54:08;;;;;;;12.80;8.00;;;;;;;2.79;100.00;98582.09;433552;1257;139080;-62
2024/01/02 01:04:14;;;;;;;15.10;7.50;;;;;;;2.88;100.00;98580.80;433533;1260;140904;-62
2024/01/02 01:14:20;;;;;;;12.40;7.90;;;;;;;2.95;100.00;98579.94;433847;1260;139211;-61
2024/01/02 01:24:26;;;;;;;11.40;6.90;;;;;;;3.03;100.00;98575.77;433534;1256;139068;-62
2024/01/02 01:34:32;;;;;;;13.00;8.50;;;;;;;3.07;100.00;98575.20;433482;1258;140098;-62
2024/01/02 01:44:38;;;;;;;12.80;8.80;;;;;;;3.11;100.00;98569.14;433658;1260;141469;-61
2024/01/02 01:54:44;;;;;;;13.10;9.50;;;;;;;3.14;100.00;98573.84;433872;1259;141307;-61
2024/01/02 02:04:52;;;;;;;11.90;7.90;;;;;;;3.17;100.00;98572.45;434129;1257;138905;-61
2024/01/02 02:14:58;;;;;;;14.20;9.00;;;;;;;3.20;100.00;98576.67;434811;1258;139853;-62
2024/01/02 02:25:18;;;;;;;10.50;6.80;;;;;;;3.19;100.00;98579.44;434516;1257;325836;-62
2024/01/02 02:35:23;;;;;;;13.30;7.50;;;;;;;3.21;100.00;98570.55;433523;1258;139581;-61
2024/01/02 02:45:29;;;;;;;10.10;6.50;;;;;;;3.22;100.00;98570.66;433468;1259;139237;-62
2024/01/02 02:55:36;;;;;;;11.50;7.10;;;;;;;3.25;100.00;98569.66;433796;1254;139545;-62
2024/01/02 03:05:41;;;;;;;11.10;6.90;;;;;;;3.25;100.00;98561.34;433149;1257;138747;-61
2024/01/02 03:15:47;;;;;;;10.40;6.60;;;;;;;3.26;100.00;98562.18;435137;1257;140250;-61
2024/01/02 03:25:53;;;;;;;10.20;7.00;;;;;;;3.30;100.00;98558.51;433402;1259;139574;-61
2024/01/02 03:35:59;;;;;;;9.10;6.60;;;;;;;3.32;100.00;98558.08;433264;1255;139984;-62
2024/01/02 03:46:05;;;;;;;7.40;6.70;;;;;;;3.32;100.00;98560.85;433494;1257;139089;-61
2024/01/02 03:56:15;;;;;;;8.60;6.10;;;;;;;3.34;100.00;98567.98;432781;1260;139947;-61
2024/01/02 04:06:21;;;;;;;7.10;5.90;;;;;;;3.34;100.00;98566.63;433315;1256;138929;-62
2024/01/02 04:16:27;;;;;;;6.90;5.60;;;;;;;3.33;100.00;98569.79;433296;1258;139771;-62
2024/01/02 04:26:33;;;;;;;7.50;6.80;;;;;;;3.32;100.00;98568.95;433371;1256;139253;-63
2024/01/02 04:36:40;;;;;;;5.40;5.00;;;;;;;3.29;100.00;98568.42;433297;1258;140354;-62
2024/01/02 04:46:46;;;;;;;4.20;3.80;;;;;;;3.27;100.00;98569.40;434163;1259;140030;-61
2024/01/02 04:56:52;;;;;;;7.10;5.40;;;;;;;3.24;100.00;98571.27;433485;1259;139115;-61
2024/01/02 05:06:58;;;;;;;7.10;4.70;;;;;;;3.23;100.00;98566.65;433576;1256;138797;-62
2024/01/02 05:17:04;;;;;;;5.40;4.90;;;;;;;3.23;100.00;98566.65;433749;1255;140627;-62
2024/01/02 05:27:10;;;;;;;6.70;5.50;;;;;;;3.23;100.00;98574.59;434774;1257;139077;-61
2024/01/02 05:37:16;;;;;;;6.10;5.40;;;;;;;3.24;100.00;98574.91;434040;1256;138875;-61
2024/01/02 05:47:21;;;;;;;5.60;5.00;;;;;;;3.20;100.00;98576.46;433883;1258;138984;-62
2024/01/02 05:57:28;;;;;;;7.50;6.70;;;;;;;3.22;100.00;98583.63;433448;1258;138877;-61
2024/01/02 06:07:33;;;;;;;10.50;6.60;;;;;;;3.24;100.00;98588.40;433443;1256;139125;-62
2024/01/02 06:17:39;;;;;;;8.20;6.60;;;;;;;3.25;100.00;98580.42;433401;1256;140498;-62
2024/01/02 06:27:45;;;;;;;9.20;8.20;;;;;;;3.20;100.00;98581.98;433751;1258;139445;-62
2024/01/02 06:37:51;;;;;;;10.90;8.50;;;;;;;3.13;100.00;98584.08;434210;1258;141906;-62
2024/01/02 06:47:57;;;;;;;7.90;6.70;;;;;;;3.12;100.00;98582.05;433679;1256;141717;-62
2024/01/02 06:58:03;;;;;;;8.50;6.90;;;;;;;3.09;100.00;98588.11;433431;1256;139016;-67
2024/01/02 07:08:10;;;;;;;8.30;7.50;;;;;;;3.09;100.00;98591.35;434228;1258;139936;-72
2024/01/02 07:18:15;;;;;;;10.80;7.50;;;;;;;3.09;100.00;98585.48;435165;1254;139187;-64
2024/01/02 07:28:22;;;;;;;11.80;9.70;;;;;;;3.12;100.00;98581.89;435226;1254;138916;-75
2024/01/02 07:38:27;;;;;;;13.30;10.90;;;;;;;3.20;100.00;98588.08;438585;1258;140493;-65
2024/01/02 07:48:34;;;;;;;15.40;12.10;;;;;;;3.35;100.00;98584.89;433560;1256;140787;-69
2024/01/02 07:58:40;;;;;;;14.70;8.10;;;;;;;3.41;100.00;98585.46;433500;1256;140567;-65
2024/01/02 08:08:45;;;;;;;14.20;9.00;;;;;;;3.44;100.00;98581.54;433761;1256;139379;-68
2024/01/02 08:18:52;;;;;;;14.40;8.60;;;;;;;3.42;100.00;98577.98;433462;1256;139851;-65
2024/01/02 08:28:58;;;;;;;11.80;9.20;;;;;;;3.42;100.00;98570.02;433730;1258;140214;-67
2024/01/02 08:39:05;;;;;;;10.40;8.90;;;;;;;3.39;100.00;98581.40;433984;1258;140618;-68
2024/01/02 08:49:12;;;;;;;13.80;8.70;;;;;;;3.42;100.00;98579.73;433893;1257;140589;-67
2024/01/02 08:59:18;;;;;;;11.20;8.30;;;;;;;3.45;100.00;98583.05;434056;1258;140312;-70
2024/01/02 09:09:24;;;;;;;9.20;7.20;;;;;;;3.56;100.00;98582.64;433121;1256;139688;-70
2024/01/02 09:19:31;;;;;;;10.90;6.00;;;;;;;3.66;100.00;98578.46;433349;1257;139045;-63
2024/01/02 09:29:37;;;;;;;10.30;6.10;;;;;;;3.80;100.00;98582.95;433816;1257;139502;-70
2024/01/02 09:40:09;;;;;;;7.10;5.50;;;;;;;3.91;100.00;98582.21;433448;1256;139348;-65
2024/01/02 09:50:52;;;;;;;8.80;5.20;;;;;;;4.25;100.00;98567.80;435046;1256;139690;-64
2024/01/02 10:01:11;;;;;;;12.60;7.40;;;;;;;4.43;100.00;98557.61;438215;1256;139039;-65
2024/01/02 10:11:28;;;;;;;11.20;6.30;;;;;;;4.53;100.00;98545.81;436384;1258;139645;-70
2024/01/02 10:21:43;;;;;;;9.80;6.70;;;;;;;4.70;100.00;98530.13;438000;1254;138823;-70
2024/01/02 10:32:03;;;;;;;10.00;6.00;;;;;;;5.17;100.00;98516.54;436065;1258;138827;-66
2024/01/02 10:42:26;;;;;;;7.30;5.30;;;;;;;5.59;100.00;98510.92;434087;1258;139645;-65
2024/01/02 10:52:42;;;;;;;9.30;4.80;;;;;;;5.78;100.00;98501.77;437546;1254;139263;-82
2024/01/02 11:02:54;;;;;;;11.10;6.20;;;;;;;6.02;100.00;98485.40;438661;1254;138411;-83
2024/01/02 11:13:04;;;;;;;9.50;4.40;;;;;;;6.23;100.00;98472.56;436802;1255;140187;-69
2024/01/02 11:23:23;;;;;;;10.20;2.90;;;;;;;6.29;100.00;98442.31;435400;1254;139170;-68
2024/01/02 11:33:43;;;;;;;8.40;3.70;;;;;;;6.27;100.00;98422.67;433689;1256;141423;-70
2024/01/02 11:43:55;;;;;;;9.20;5.40;;;;;;;6.18;100.00;98407.74;433708;1258;140703;-71
2024/01/02 11:54:25;;;;;;;8.60;3.90;;;;;;;6.06;100.00;98389.79;433598;1256;140282;-68
2024/01/02 12:04:49;;;;;;;8.10;4.10;;;;;;;6.02;100.00;98374.19;433992;1256;138817;-65
2024/01/02 12:15:05;;;;;;;8.70;4.50;;;;;;;5.87;100.00;98360.20;434136;1256;139587;-64
2024/01/02 12:25:14;;;;;;;13.00;4.70;;;;;;;5.56;100.00;98346.32;435400;1256;138872;-68
2024/01/02 12:35:29;;;;;;;7.80;4.20;;;;;;;5.36;100.00;98335.26;436602;1258;139104;-67
2024/01/02 12:45:40;;;;;;;7.10;4.00;;;;;;;5.32;100.00;98328.21;436115;1258;139924;-67
2024/01/02 12:55:55;;;;;;;10.20;4.70;;;;;;;5.41;100.00;98322.49;434220;1256;138934;-80
2024/01/02 13:06:03;;;;;;;7.80;4.50;;;;;;;5.52;100.00;98309.41;434306;1256;139030;-69
2024/01/02 13:16:10;;;;;;;8.20;4.60;;;;;;;5.43;100.00;98297.85;434909;1256;139507;-70
2024/01/02 13:26:16;;;;;;;11.40;5.40;;;;;;;5.11;100.00;98293.09;435578;1258;139710;-69
2024/01/02 13:36:23;;;;;;;7.40;4.60;;;;;;;4.78;100.00;98295.44;435049;1256;139039;-69
2024/01/02 13:46:28;;;;;;;;;;;;;;;4.57;100.00;98289.10;435922;1255;139306;-68
2024/01/02 13:56:35;;;;;;;12.30;6.10;;;;;;;4.45;100.00;98277.31;434366;1258;125425;-67
2024/01/02 14:06:42;;;;;;;15.50;6.90;;;;;;;4.33;100.00;98279.89;440443;1257;139359;-64
2024/01/02 14:16:50;;;;;;;10.40;6.30;;;;;;;4.20;100.00;98273.04;437508;1255;138988;-68
2024/01/02 14:27:07;;;;;;;13.80;9.00;;;;;;;4.06;100.00;98266.75;434403;1258;326255;-64
2024/01/02 14:37:23;;;;;;;15.50;9.00;;;;;;;3.88;100.00;98236.63;439620;1257;138703;-79
2024/01/02 14:47:44;;;;;;;15.30;10.00;;;;;;;3.71;100.00;98218.20;441330;1256;142150;-74
2024/01/02 14:57:59;;;;;;;17.00;8.80;;;;;;;3.62;100.00;98205.20;439225;1256;139268;-70
2024/01/02 15:08:10;;;;;;;15.80;9.50;;;;;;;3.56;100.00;98193.61;441014;1256;139728;-83
2024/01/02 15:18:38;;;;;;;19.50;9.10;;;;;;;3.49;100.00;98184.86;439632;1258;138810;-73
2024/01/02 15:28:50;;;;;;;19.30;10.30;;;;;;;3.46;100.00;98163.76;439086;1256;139412;-83
2024/01/02 15:39:10;;;;;;;16.60;10.40;;;;;;;3.47;100.00;98152.27;439869;1253;139450;-73
2024/01/02 15:49:24;;;;;;;14.00;9.00;;;;;;;3.49;100.00;98143.35;433631;1257;139832;-68
2024/01/02 15:59:36;;;;;;;15.20;9.60;;;;;;;3.46;100.00;98134.85;435415;1256;140065;-67
2024/01/02 16:10:22;;;;;;;10.80;7.00;;;;;;;3.38;100.00;98116.42;433495;1258;139240;-69
2024/01/02 16:20:54;;;;;;;11.60;7.00;;;;;;;3.30;100.00;98100.66;433386;1258;140254;-70
2024/01/02 16:31:14;;;;;;;16.40;8.80;;;;;;;3.22;100.00;98089.20;433140;1258;140314;-68
2024/01/02 16:41:23;;;;;;;13.10;6.00;;;;;;;3.14;100.00;98081.16;433475;1254;139717;-68
2024/01/02 16:51:31;;;;;;;7.90;5.80;;;;;;;3.08;100.00;98063.72;434967;1256;140126;-66
2024/01/02 17:01:38;;;;;;;10.90;7.30;;;;;;;3.04;100.00;98055.94;434507;1259;138885;-65
2024/01/02 17:11:45;;;;;;;8.70;6.30;;;;;;;2.99;100.00;98049.33;433250;1256;138753;-64
2024/01/02 17:21:52;;;;;;;12.00;6.10;;;;;;;2.94;100.00;98035.60;434474;1259;139322;-63
2024/01/02 17:31:59;;;;;;;13.70;7.90;;;;;;;2.90;100.00;98003.70;433934;1258;140002;-64
2024/01/02 17:42:06;;;;;;;15.10;9.20;;;;;;;2.85;100.00;97991.04;434006;1259;139567;-64
2024/01/02 17:52:13;;;;;;;16.10;9.90;;;;;;;2.81;100.00;97973.45;434412;1259;138958;-64
2024/01/02 18:02:29;;;;;;;19.20;9.90;;;;;;;2.78;100.00;97959.80;435353;1257;141061;-62
2024/01/02 18:12:46;;;;;;;13.40;8.80;;;;;;;2.77;100.00;97935.34;437123;1258;139298;-64
2024/01/02 18:22:54;;;;;;;18.70;11.40;;;;;;;2.77;100.00;97923.58;434566;1258;141569;-64
2024/01/02 18:33:11;;;;;;;20.70;11.40;;;;;;;2.76;100.00;97913.42;434413;1259;139195;-63
2024/01/02 18:43:27;;;;;;;20.10;11.70;;;;;;;2.76;100.00;97888.55;433729;1258;140233;-64
2024/01/02 18:53:43;;;;;;;16.50;10.10;;;;;;;2.76;100.00;97875.08;433459;1255;140197;-64
2024/01/02 19:03:50;;;;;;;21.00;10.30;;;;;;;2.76;100.00;97860.69;435668;1258;140254;-64
2024/01/02 19:13:58;;;;;;;16.40;9.70;;;;;;;2.77;100.00;97840.58;434547;1257;140136;-64
2024/01/02 19:24:08;;;;;;;16.10;9.60;;;;;;;2.78;100.00;97829.47;434958;1254;139278;-65
2024/01/02 19:34:13;;;;;;;12.20;8.60;;;;;;;2.79;100.00;97805.02;437051;1257;139574;-63
2024/01/02 19:44:20;;;;;;;16.30;8.80;;;;;;;2.82;100.00;97787.41;433691;1260;139482;-63
2024/01/02 19:54:26;;;;;;;15.50;9.40;;;;;;;2.85;100.00;97774.13;433950;1254;139967;-63
2024/01/02 20:04:39;;;;;;;13.80;8.20;;;;;;;2.89;100.00;97761.81;433588;1258;139272;-63
2024/01/02 20:14:50;;;;;;;11.50;7.50;;;;;;;2.93;100.00;97745.47;437246;1254;139485;-64
2024/01/02 20:25:00;;;;;;;11.90;7.40;;;;;;;2.96;100.00;97727.13;433602;1258;139639;-64
2024/01/02 20:35:22;;;;;;;15.50;8.30;;;;;;;2.98;100.00;97724.58;435321;1254;140293;-63
2024/01/02 20:45:30;;;;;;;10.00;7.10;;;;;;;3.00;100.00;97711.16;434172;1254;139864;-64
2024/01/02 20:55:41;;;;;;;13.20;9.30;;;;;;;3.01;100.00;97689.16;433936;1259;138890;-65
2024/01/02 21:06:21;;;;;;;11.70;8.80;;;;;;;3.03;100.00;97681.23;435926;1254;140450;-66
2024/01/02 21:16:27;;;;;;;12.10;8.70;;;;;;;3.04;100.00;97676.52;434275;1258;141228;-64
2024/01/02 21:26:33;;;;;;;13.40;9.50;;;;;;;3.05;100.00;97665.72;434419;1257;139284;-64
2024/01/02 21:36:39;;;;;;;14.60;10.90;;;;;;;3.07;100.00;97649.99;434287;1260;138992;-65
2024/01/02 21:46:45;;;;;;;10.90;9.10;;;;;;;3.10;100.00;97638.64;433455;1259;140031;-65
2024/01/02 21:56:52;;;;;;;11.90;9.30;;;;;;;3.12;100.00;97619.98;433827;1254;140439;-65
2024/01/02 22:07:07;;;;;;;14.60;10.60;;;;;;;3.14;100.00;97607.75;433696;1258;139247;-66
2024/01/02 22:17:38;;;;;;;13.70;9.60;;;;;;;3.15;100.00;97592.63;434055;1254;140202;-66
2024/01/02 22:27:44;;;;;;;13.60;9.10;;;;;;;3.15;100.00;97575.54;433782;1255;139873;-66
2024/01/02 22:37:51;;;;;;;12.20;9.00;;;;;;;3.13;100.00;97561.98;433959;1258;139828;-67
2024/01/02 22:47:56;;;;;;;12.30;10.00;;;;;;;3.12;100.00;97547.17;434505;1258;141043;-66
2024/01/02 22:58:03;;;;;;;12.90;8.90;;;;;;;3.09;100.00;97534.02;433947;1258;139802;-65
2024/01/02 23:08:15;;;;;;;10.30;8.30;;;;;;;3.07;100.00;97518.27;433879;1256;139693;-65
2024/01/02 23:18:22;;;;;;;10.60;8.60;;;;;;;3.06;100.00;97502.27;435288;1254;139214;-66
2024/01/02 23:28:57;;;;;;;;;;;;;;;3.04;100.00;97489.80;435874;1254;139967;-64
2024/01/02 23:39:04;;;;;;;10.40;9.30;;;;;;;3.01;100.00;97477.38;433645;1254;126610;-64
2024/01/02 23:49:09;;;;;;;;;;;;;;;3.00;100.00;97457.06;434165;1254;139956;-66
2024/01/02 23:59:16;;;;;;;12.10;10.80;;;;;;;2.98;100.00;97438.55;434113;1255;126186;-64
